Time;durP1;ratioP1;P1;durP2;ratioP2;P2;SDS_P1;SDS_P2;PMS_P1;PMS_P2;Temp;Humidity;BMP_temperature;BMP_pressure;BME280_temperature;BME280_humidity;BME280_pressure;Samples;Min_cycle;Max_cycle;Signal;HPM_P1;HPM_P2
2023/10/22 00:01:02;;;;;;;4.60;2.63;;;13.90;99.90;;;;;;5072206;28;20239;-71
2023/10/22 00:03:28;;;;;;;3.47;2.40;;;13.80;99.90;;;;;;5072652;28;20245;-70
2023/10/22 00:05:53;;;;;;;3.47;2.50;;;13.80;99.90;;;;;;5072634;28;20166;-70
2023/10/22 00:08:19;;;;;;;4.60;3.00;;;13.80;99.90;;;;;;5072279;28;20182;-72
2023/10/22 00:10:44;;;;;;;3.00;2.70;;;13.80;99.90;;;;;;5072284;28;20675;-71
2023/10/22 00:13:10;;;;;;;2.90;2.50;;;13.70;99.90;;;;;;5072353;28;20172;-70
2023/10/22 00:15:36;;;;;;;5.13;2.60;;;13.70;99.90;;;;;;5072697;28;20389;-70
2023/10/22 00:18:01;;;;;;;5.17;3.10;;;13.70;99.90;;;;;;5072642;28;20224;-73
2023/10/22 00:20:27;;;;;;;3.30;2.53;;;13.70;99.90;;;;;;5071274;28;20244;-70
2023/10/22 00:22:53;;;;;;;3.03;2.83;;;13.60;99.90;;;;;;5072180;28;20276;-73
2023/10/22 00:25:18;;;;;;;3.53;2.60;;;13.70;99.90;;;;;;5072192;28;20188;-71
2023/10/22 00:27:44;;;;;;;2.90;2.70;;;13.70;99.90;;;;;;5072499;28;20219;-72
2023/10/22 00:30:09;;;;;;;7.23;3.00;;;13.70;99.90;;;;;;5071654;28;20296;-70
2023/10/22 00:32:35;;;;;;;4.13;3.23;;;13.70;99.90;;;;;;5072201;28;20261;-69
2023/10/22 00:35:01;;;;;;;5.37;3.43;;;13.70;99.90;;;;;;5072755;28;20213;-70
2023/10/22 00:37:27;;;;;;;4.97;2.80;;;13.70;99.90;;;;;;5073206;28;20162;-71
2023/10/22 00:39:53;;;;;;;4.27;3.20;;;13.70;99.90;;;;;;5072861;28;20166;-69
2023/10/22 00:42:20;;;;;;;3.20;2.90;;;13.70;99.90;;;;;;5072735;28;20194;-70
2023/10/22 00:44:46;;;;;;;3.60;2.70;;;13.70;99.90;;;;;;5072571;28;20196;-70
2023/10/22 00:47:16;;;;;;;10.67;3.03;;;13.70;99.90;;;;;;5072218;28;20667;-71
2023/10/22 00:49:43;;;;;;;3.33;2.80;;;13.60;99.90;;;;;;5072392;28;20181;-71
2023/10/22 00:52:09;;;;;;;3.00;2.80;;;13.60;99.90;;;;;;5071456;28;20194;-72
2023/10/22 00:54:35;;;;;;;4.90;2.80;;;13.60;99.90;;;;;;5071549;28;20762;-71
2023/10/22 00:57:02;;;;;;;5.17;2.80;;;13.70;99.90;;;;;;5071850;28;20181;-71
2023/10/22 00:59:28;;;;;;;4.50;2.40;;;13.60;99.90;;;;;;5071563;28;20280;-71
2023/10/22 01:01:53;;;;;;;3.93;3.03;;;13.60;99.90;;;;;;5071126;28;20201;-71
2023/10/22 01:04:19;;;;;;;2.80;2.60;;;13.70;99.90;;;;;;5071588;28;20166;-71
2023/10/22 01:06:45;;;;;;;3.27;3.07;;;13.70;99.90;;;;;;5071861;28;20185;-72
2023/10/22 01:09:11;;;;;;;9.03;2.40;;;13.60;99.90;;;;;;5071163;28;20178;-69
2023/10/22 01:11:56;;;;;;;3.00;2.80;;;13.60;99.90;;;;;;5071119;28;20216;-71
2023/10/22 01:14:21;;;;;;;3.77;2.70;;;13.60;99.90;;;;;;5071595;28;20174;-71
2023/10/22 01:16:47;;;;;;;2.23;2.13;;;13.60;99.90;;;;;;5071905;28;20173;-70
2023/10/22 01:19:12;;;;;;;3.40;2.60;;;13.60;99.90;;;;;;5071459;28;20700;-73
2023/10/22 01:21:38;;;;;;;2.67;2.47;;;13.60;99.90;;;;;;5071065;28;20284;-69
2023/10/22 01:24:04;;;;;;;4.87;2.40;;;13.60;99.90;;;;;;5071236;28;20178;-71
2023/10/22 01:26:29;;;;;;;3.00;2.70;;;13.70;99.90;;;;;;5071325;28;20182;-70
2023/10/22 01:28:55;;;;;;;4.13;2.73;;;13.70;99.90;;;;;;5071398;28;20185;-71
2023/10/22 01:31:21;;;;;;;2.70;2.50;;;13.70;99.90;;;;;;5070684;28;20304;-71
2023/10/22 01:33:46;;;;;;;2.60;2.40;;;13.70;99.90;;;;;;5071566;28;20652;-71
2023/10/22 01:36:12;;;;;;;3.73;2.37;;;13.70;99.90;;;;;;5070903;28;20181;-70
2023/10/22 01:38:38;;;;;;;2.80;2.40;;;13.60;99.90;;;;;;5071329;28;20651;-71
2023/10/22 01:41:07;;;;;;;3.43;2.50;;;13.60;99.90;;;;;;5071101;28;20267;-73
2023/10/22 01:43:32;;;;;;;5.13;2.60;;;13.70;99.90;;;;;;5071390;28;20265;-73
2023/10/22 01:45:58;;;;;;;3.97;2.90;;;13.60;99.90;;;;;;5071347;28;20299;-73
2023/10/22 01:48:23;;;;;;;2.80;2.60;;;13.70;99.90;;;;;;5071142;28;20537;-73
2023/10/22 01:50:49;;;;;;;3.23;2.30;;;13.60;99.90;;;;;;5071067;28;20201;-71
2023/10/22 01:53:15;;;;;;;2.43;2.23;;;13.60;99.90;;;;;;5071034;28;20251;-71
2023/10/22 01:55:40;;;;;;;2.80;2.47;;;13.60;99.90;;;;;;5071118;28;20170;-72
2023/10/22 01:58:06;;;;;;;2.93;2.73;;;13.60;99.90;;;;;;5071051;28;20262;-72
2023/10/22 02:00:32;;;;;;;2.83;2.63;;;13.50;99.90;;;;;;5070473;28;20182;-72
2023/10/22 02:02:58;;;;;;;2.30;2.20;;;13.50;99.90;;;;;;5070991;28;20277;-72
2023/10/22 02:05:24;;;;;;;3.17;2.87;;;13.50;99.90;;;;;;5070637;28;20171;-72
2023/10/22 02:07:50;;;;;;;3.83;2.30;;;13.50;99.90;;;;;;5070810;28;20713;-72
2023/10/22 02:10:15;;;;;;;2.30;2.20;;;13.50;99.90;;;;;;5070693;28;20228;-72
2023/10/22 02:12:41;;;;;;;2.50;2.30;;;13.50;99.90;;;;;;5070804;28;20186;-72
2023/10/22 02:15:07;;;;;;;2.30;2.20;;;13.50;99.90;;;;;;5071068;28;20167;-73
2023/10/22 02:17:33;;;;;;;2.60;2.40;;;13.50;99.90;;;;;;5070995;28;20217;-73
2023/10/22 02:19:58;;;;;;;2.43;2.33;;;13.40;99.90;;;;;;5070072;28;20616;-72
2023/10/22 02:22:24;;;;;;;2.53;2.40;;;13.40;99.90;;;;;;5070482;28;20201;-72
2023/10/22 02:24:49;;;;;;;2.40;2.30;;;13.40;99.90;;;;;;5071252;28;20249;-73
2023/10/22 02:27:15;;;;;;;2.80;2.43;;;13.40;99.90;;;;;;5071042;28;20631;-72
2023/10/22 02:29:40;;;;;;;2.93;2.70;;;13.40;99.90;;;;;;5070924;28;20190;-72
2023/10/22 02:32:06;;;;;;;2.37;2.27;;;13.50;99.90;;;;;;5070176;28;20820;-72
2023/10/22 02:34:32;;;;;;;2.63;2.43;;;13.50;99.90;;;;;;5070905;28;20694;-71
2023/10/22 02:36:58;;;;;;;2.43;2.23;;;13.50;99.90;;;;;;5070700;28;20427;-73
2023/10/22 02:39:23;;;;;;;2.27;2.17;;;13.40;99.90;;;;;;5070478;28;20273;-73
2023/10/22 02:41:49;;;;;;;2.60;2.40;;;13.30;99.90;;;;;;5070338;28;20194;-72
2023/10/22 02:44:14;;;;;;;3.17;2.67;;;13.30;99.90;;;;;;5072085;28;20205;-73
2023/10/22 02:46:40;;;;;;;2.50;2.40;;;13.30;99.90;;;;;;5074740;28;20174;-72
2023/10/22 02:49:07;;;;;;;2.30;2.20;;;13.20;99.90;;;;;;5074071;28;20178;-72
2023/10/22 02:51:32;;;;;;;2.27;2.17;;;13.30;99.90;;;;;;5073139;28;20206;-73
2023/10/22 02:53:58;;;;;;;2.80;2.40;;;13.30;99.90;;;;;;5073968;28;20552;-71
2023/10/22 02:56:23;;;;;;;2.53;2.33;;;13.30;99.90;;;;;;5074255;28;20210;-73
2023/10/22 02:58:49;;;;;;;8.43;2.30;;;13.30;99.90;;;;;;5074408;28;20170;-73
2023/10/22 03:01:16;;;;;;;3.00;2.53;;;13.30;99.90;;;;;;5074071;28;20560;-73
2023/10/22 03:03:42;;;;;;;2.30;2.20;;;13.40;99.90;;;;;;5074168;28;20639;-73
2023/10/22 03:06:09;;;;;;;2.23;2.13;;;13.30;99.90;;;;;;5073955;28;20192;-73
2023/10/22 03:08:36;;;;;;;2.40;2.30;;;13.30;99.90;;;;;;5073847;28;20201;-70
2023/10/22 03:11:03;;;;;;;2.80;2.30;;;13.30;99.90;;;;;;5073598;28;20213;-71
2023/10/22 03:13:28;;;;;;;2.53;2.33;;;13.40;99.90;;;;;;5073718;28;20594;-74
2023/10/22 03:15:54;;;;;;;2.27;2.17;;;13.40;99.90;;;;;;5073376;28;20170;-72
2023/10/22 03:18:20;;;;;;;2.77;2.47;;;13.40;99.90;;;;;;5073538;28;20181;-73
2023/10/22 03:20:46;;;;;;;2.60;2.40;;;13.50;99.90;;;;;;5073404;28;20183;-73
2023/10/22 03:23:12;;;;;;;2.57;2.37;;;13.50;99.90;;;;;;5073936;28;20170;-72
2023/10/22 03:25:39;;;;;;;2.40;2.30;;;13.50;99.90;;;;;;5073493;28;20198;-72
2023/10/22 03:28:06;;;;;;;2.40;2.20;;;13.50;99.90;;;;;;5073362;28;20181;-73
2023/10/22 03:30:37;;;;;;;2.40;2.20;;;13.50;99.90;;;;;;5073245;28;20351;-71
2023/10/22 03:33:02;;;;;;;2.50;2.40;;;13.50;99.90;;;;;;5073398;28;20197;-72
2023/10/22 03:35:28;;;;;;;2.53;2.37;;;13.50;99.90;;;;;;5073444;28;20178;-71
2023/10/22 03:37:53;;;;;;;3.03;2.83;;;13.50;99.90;;;;;;5073384;28;20253;-74
2023/10/22 03:40:19;;;;;;;2.70;2.50;;;13.50;99.90;;;;;;5072768;28;20197;-72
2023/10/22 03:42:45;;;;;;;2.20;2.10;;;13.50;99.90;;;;;;5073244;28;20212;-73
2023/10/22 03:45:12;;;;;;;2.47;2.37;;;13.40;99.90;;;;;;5073118;28;20231;-72
2023/10/22 03:47:38;;;;;;;2.40;2.30;;;13.40;99.90;;;;;;5072796;28;20220;-72
2023/10/22 03:50:04;;;;;;;2.40;2.30;;;13.30;99.90;;;;;;5072649;28;20436;-72
2023/10/22 03:52:29;;;;;;;2.50;2.30;;;13.30;99.90;;;;;;5072453;28;20289;-73
2023/10/22 03:54:55;;;;;;;2.40;2.20;;;13.40;99.90;;;;;;5072745;28;20265;-73
2023/10/22 03:57:20;;;;;;;2.40;2.30;;;13.40;99.90;;;;;;5072806;28;20174;-71
2023/10/22 03:59:46;;;;;;;2.60;2.50;;;13.40;99.90;;;;;;5072814;28;20174;-71
2023/10/22 04:02:12;;;;;;;2.67;2.40;;;13.30;99.90;;;;;;5072494;28;20265;-75
2023/10/22 04:04:37;;;;;;;2.60;2.50;;;13.30;99.90;;;;;;5072722;28;20170;-74
2023/10/22 04:07:03;;;;;;;2.40;2.30;;;13.20;99.90;;;;;;5072499;28;20182;-72
2023/10/22 04:09:32;;;;;;;2.30;2.20;;;13.20;99.90;;;;;;5072496;28;20178;-71
2023/10/22 04:11:58;;;;;;;2.60;2.40;;;13.20;99.90;;;;;;5072504;28;20206;-72
2023/10/22 04:14:23;;;;;;;2.67;2.57;;;13.20;99.90;;;;;;5072565;28;20171;-71
2023/10/22 04:16:52;;;;;;;2.57;2.37;;;13.10;99.90;;;;;;5072610;28;20181;-70
2023/10/22 04:19:18;;;;;;;2.30;2.20;;;13.10;99.90;;;;;;5072520;28;20170;-71
2023/10/22 04:21:43;;;;;;;3.00;2.57;;;13.10;99.90;;;;;;5071792;28;20613;-71
2023/10/22 04:24:09;;;;;;;2.30;2.20;;;13.10;99.90;;;;;;5072137;28;20253;-72
2023/10/22 04:26:35;;;;;;;2.60;2.50;;;13.10;99.90;;;;;;5072301;28;20170;-71
2023/10/22 04:29:00;;;;;;;2.30;2.20;;;13.10;99.90;;;;;;5072279;28;20260;-70
2023/10/22 04:31:26;;;;;;;2.63;2.37;;;13.10;99.90;;;;;;5072161;28;20263;-72
2023/10/22 04:33:54;;;;;;;2.20;2.10;;;13.10;99.90;;;;;;5072133;28;20174;-71
2023/10/22 04:36:20;;;;;;;2.20;2.10;;;13.10;99.90;;;;;;5072387;28;20296;-72
2023/10/22 04:38:46;;;;;;;2.37;2.27;;;13.10;99.90;;;;;;5072148;28;20543;-72
2023/10/22 04:41:12;;;;;;;2.30;2.20;;;13.00;99.90;;;;;;5071827;28;20572;-72
2023/10/22 04:43:38;;;;;;;2.30;2.20;;;13.00;99.90;;;;;;5072212;28;20201;-71
2023/10/22 04:46:04;;;;;;;2.40;2.30;;;13.10;99.90;;;;;;5072025;28;20166;-71
2023/10/22 04:48:31;;;;;;;5.40;2.30;;;13.10;99.90;;;;;;5071657;28;20712;-72
2023/10/22 04:50:59;;;;;;;2.50;2.30;;;13.10;99.90;;;;;;5071592;28;20209;-72
2023/10/22 04:53:25;;;;;;;2.30;2.20;;;13.20;99.90;;;;;;5073529;28;20185;-72
2023/10/22 04:55:55;;;;;;;2.57;2.40;;;13.20;99.90;;;;;;5072115;28;20635;-71
2023/10/22 04:58:21;;;;;;;2.30;2.20;;;13.20;99.90;;;;;;5071691;28;20657;-72
2023/10/22 05:00:47;;;;;;;2.20;2.10;;;13.20;99.90;;;;;;5071679;28;20182;-71
2023/10/22 05:03:13;;;;;;;2.47;2.37;;;13.30;99.90;;;;;;5072846;28;20253;-71
2023/10/22 05:05:38;;;;;;;2.47;2.37;;;13.30;99.90;;;;;;5072074;28;20228;-71
2023/10/22 05:08:05;;;;;;;2.30;2.20;;;13.30;99.90;;;;;;5071039;28;20193;-71
2023/10/22 05:10:38;;;;;;;2.37;2.10;;;13.30;99.90;;;;;;5071423;28;20243;-72
2023/10/22 05:13:04;;;;;;;2.20;2.10;;;13.30;99.90;;;;;;5072268;28;20542;-72
2023/10/22 05:15:29;;;;;;;2.37;2.23;;;13.30;99.90;;;;;;5071878;28;20170;-72
2023/10/22 05:17:57;;;;;;;2.30;2.20;;;13.30;99.90;;;;;;5071450;28;20213;-72
2023/10/22 05:20:32;;;;;;;2.20;2.10;;;13.30;99.90;;;;;;5071085;28;20204;-72
2023/10/22 05:22:58;;;;;;;2.20;2.10;;;13.30;99.90;;;;;;5071953;28;20193;-72
2023/10/22 05:25:23;;;;;;;2.20;2.10;;;13.20;99.90;;;;;;5071379;28;20189;-71
2023/10/22 05:27:49;;;;;;;2.30;2.20;;;13.30;99.90;;;;;;5071915;28;20549;-72
2023/10/22 05:30:15;;;;;;;2.77;2.67;;;13.30;99.90;;;;;;5070942;28;20232;-72
2023/10/22 05:32:41;;;;;;;2.40;2.30;;;13.10;99.90;;;;;;5071470;28;20281;-72
2023/10/22 05:35:07;;;;;;;3.53;2.40;;;12.80;99.90;;;;;;5071739;28;20245;-72
2023/10/22 05:37:33;;;;;;;2.67;2.43;;;12.50;99.90;;;;;;5071246;28;20178;-72
2023/10/22 05:39:59;;;;;;;2.70;2.50;;;12.20;99.90;;;;;;5070848;28;20185;-72
2023/10/22 05:42:25;;;;;;;2.93;2.70;;;11.90;99.90;;;;;;5070970;28;20200;-71
2023/10/22 05:44:51;;;;;;;2.80;2.60;;;11.70;99.90;;;;;;5071391;28;20245;-71
2023/10/22 05:47:16;;;;;;;2.50;2.40;;;11.60;99.90;;;;;;5071236;28;20182;-72
2023/10/22 05:49:43;;;;;;;3.60;2.40;;;11.50;99.90;;;;;;5071230;28;20258;-71
2023/10/22 05:52:09;;;;;;;2.73;2.53;;;11.40;99.90;;;;;;5070345;28;20221;-71
2023/10/22 05:54:35;;;;;;;2.80;2.60;;;11.40;99.90;;;;;;5070661;28;20186;-71
2023/10/22 05:57:01;;;;;;;2.97;2.77;;;11.30;99.90;;;;;;5071333;28;20220;-71
2023/10/22 05:59:27;;;;;;;2.70;2.60;;;11.30;99.90;;;;;;5071079;28;20177;-71
2023/10/22 06:01:52;;;;;;;3.27;2.70;;;11.30;99.90;;;;;;5070697;28;20197;-71
2023/10/22 06:04:18;;;;;;;2.70;2.60;;;11.20;99.90;;;;;;5070983;28;20240;-72
2023/10/22 06:06:44;;;;;;;2.80;2.70;;;11.20;99.90;;;;;;5071070;28;20178;-70
2023/10/22 06:09:11;;;;;;;3.30;3.00;;;11.20;99.90;;;;;;5070863;28;20178;-72
2023/10/22 06:11:38;;;;;;;3.40;3.10;;;11.20;99.90;;;;;;5070417;28;20217;-72
2023/10/22 06:14:04;;;;;;;3.07;2.87;;;11.20;99.90;;;;;;5070984;28;20175;-72
2023/10/22 06:16:31;;;;;;;3.00;2.80;;;11.20;99.90;;;;;;5070884;28;20170;-71
2023/10/22 06:18:57;;;;;;;3.60;3.40;;;11.10;99.90;;;;;;5071680;28;20253;-72
2023/10/22 06:21:22;;;;;;;3.10;2.73;;;11.10;99.90;;;;;;5074047;28;20198;-71
2023/10/22 06:23:49;;;;;;;3.83;3.00;;;11.10;99.90;;;;;;5073304;28;20205;-72
2023/10/22 06:26:15;;;;;;;3.30;3.10;;;11.10;99.90;;;;;;5073915;28;20190;-72
2023/10/22 06:28:41;;;;;;;3.40;3.00;;;11.20;99.90;;;;;;5074284;28;20557;-72
2023/10/22 06:31:12;;;;;;;3.10;3.00;;;11.20;99.90;;;;;;5073796;28;20676;-72
2023/10/22 06:33:39;;;;;;;3.30;3.20;;;11.20;99.90;;;;;;5074151;28;20239;-72
2023/10/22 06:36:31;;;;;;;3.20;3.00;;;11.20;99.90;;;;;;5074175;28;20182;-72
2023/10/22 06:38:56;;;;;;;3.63;3.33;;;11.20;99.90;;;;;;5073463;28;20194;-72
2023/10/22 06:41:26;;;;;;;3.73;3.43;;;11.20;99.90;;;;;;5073170;28;20251;-72
2023/10/22 06:43:53;;;;;;;4.47;4.07;;;11.30;99.90;;;;;;5073970;28;20182;-71
2023/10/22 06:46:19;;;;;;;3.20;3.00;;;11.30;99.90;;;;;;5072423;28;20175;-72
2023/10/22 06:48:45;;;;;;;3.43;3.23;;;11.40;99.90;;;;;;5072759;28;20193;-73
2023/10/22 06:51:15;;;;;;;4.27;3.30;;;11.40;99.90;;;;;;5073596;28;20212;-71
2023/10/22 06:53:42;;;;;;;3.30;3.10;;;11.40;99.90;;;;;;5073751;28;20570;-73
2023/10/22 06:56:08;;;;;;;3.80;2.97;;;11.50;99.90;;;;;;5073695;28;20671;-72
2023/10/22 06:58:35;;;;;;;6.63;3.30;;;11.50;99.90;;;;;;5073149;28;20358;-73
2023/10/22 07:01:11;;;;;;;3.90;3.23;;;11.50;99.90;;;;;;5073338;28;20240;-71
2023/10/22 07:03:45;;;;;;;3.77;3.47;;;11.50;99.90;;;;;;5073469;28;20184;-72
2023/10/22 07:06:11;;;;;;;3.63;3.33;;;11.60;99.90;;;;;;5073547;28;20182;-72
2023/10/22 07:08:36;;;;;;;4.43;3.20;;;11.60;99.90;;;;;;5073486;28;20597;-72
2023/10/22 07:11:02;;;;;;;3.90;3.50;;;11.70;99.90;;;;;;5072770;28;20683;-72
2023/10/22 07:13:28;;;;;;;3.50;3.30;;;11.70;99.90;;;;;;5072912;28;20186;-72
2023/10/22 07:15:54;;;;;;;3.40;3.10;;;11.70;99.90;;;;;;5072976;28;20184;-72
2023/10/22 07:18:21;;;;;;;3.20;3.00;;;11.70;99.90;;;;;;5072748;28;20257;-71
2023/10/22 07:20:47;;;;;;;8.43;3.50;;;11.70;99.90;;;;;;5068002;28;20191;-72
2023/10/22 07:23:13;;;;;;;3.57;3.30;;;11.70;99.90;;;;;;5072926;28;20555;-72
2023/10/22 07:25:39;;;;;;;3.20;3.00;;;11.80;99.90;;;;;;5073095;28;20189;-72
2023/10/22 07:28:05;;;;;;;3.30;3.10;;;11.90;99.90;;;;;;5072674;28;20202;-72
2023/10/22 07:30:31;;;;;;;3.70;3.50;;;11.90;99.90;;;;;;5072133;28;20503;-72
2023/10/22 07:32:57;;;;;;;3.63;3.33;;;12.00;99.90;;;;;;5072840;28;20232;-72
2023/10/22 07:35:23;;;;;;;3.80;3.20;;;12.00;99.90;;;;;;5072806;28;20170;-72
2023/10/22 07:37:49;;;;;;;6.83;3.40;;;12.00;99.90;;;;;;5072942;28;20174;-72
2023/10/22 07:40:17;;;;;;;3.43;3.20;;;12.00;99.90;;;;;;5072638;28;20835;-72
2023/10/22 07:42:44;;;;;;;4.40;3.13;;;12.10;99.90;;;;;;5072743;28;20364;-72
2023/10/22 07:45:10;;;;;;;3.83;3.40;;;12.10;99.90;;;;;;5072918;28;20647;-72
2023/10/22 07:47:37;;;;;;;6.70;3.53;;;12.00;99.90;;;;;;5072773;28;20185;-72
2023/10/22 07:50:07;;;;;;;4.13;3.63;;;12.00;99.90;;;;;;5072471;28;20606;-72
2023/10/22 07:52:34;;;;;;;3.10;2.90;;;12.10;99.90;;;;;;5072509;28;20190;-72
2023/10/22 07:55:00;;;;;;;3.70;3.40;;;12.10;99.90;;;;;;5072679;28;20170;-71
2023/10/22 07:57:27;;;;;;;4.13;3.50;;;12.10;99.90;;;;;;5072644;28;20174;-70
2023/10/22 07:59:53;;;;;;;4.43;3.37;;;12.10;99.90;;;;;;5072491;28;20170;-70
2023/10/22 08:02:18;;;;;;;4.53;3.40;;;12.20;99.90;;;;;;5071826;28;20190;-71
2023/10/22 08:04:44;;;;;;;3.63;3.17;;;12.20;99.90;;;;;;5072425;28;20239;-71
2023/10/22 08:07:10;;;;;;;4.43;3.33;;;12.20;99.90;;;;;;5072323;28;20170;-71
2023/10/22 08:09:35;;;;;;;6.93;3.53;;;12.10;99.90;;;;;;5072139;28;20681;-72
2023/10/22 08:12:01;;;;;;;3.27;3.07;;;12.10;99.90;;;;;;5071745;28;20202;-70
2023/10/22 08:14:27;;;;;;;3.73;3.50;;;12.10;99.90;;;;;;5072145;28;20162;-70
2023/10/22 08:16:52;;;;;;;3.50;3.10;;;12.10;99.90;;;;;;5070701;28;20561;-70
2023/10/22 08:19:18;;;;;;;3.83;3.40;;;12.20;99.90;;;;;;5071662;28;20639;-70
2023/10/22 08:21:43;;;;;;;3.93;3.63;;;12.20;99.90;;;;;;5071760;28;20194;-70
2023/10/22 08:24:09;;;;;;;5.40;3.77;;;12.10;99.90;;;;;;5072233;28;20182;-70
2023/10/22 08:36:48;;;;;;;5.07;3.90;;;12.20;99.90;;;;;;5050341;28;20218;-70
2023/10/22 08:39:14;;;;;;;5.30;4.73;;;12.20;99.90;;;;;;5050550;28;20635;-72
2023/10/22 08:41:49;;;;;;;5.90;4.30;;;12.20;99.90;;;;;;5050985;28;20249;-70
2023/10/22 08:44:15;;;;;;;7.00;4.40;;;12.20;99.90;;;;;;5031367;28;20212;-70
2023/10/22 08:46:42;;;;;;;7.23;4.03;;;12.20;99.90;;;;;;5031948;28;20172;-70
2023/10/22 08:49:10;;;;;;;4.20;3.90;;;12.20;99.90;;;;;;5031842;28;20594;-70
2023/10/22 08:51:36;;;;;;;4.73;3.57;;;12.30;99.90;;;;;;5031491;28;20199;-71
2023/10/22 08:54:04;;;;;;;5.00;3.03;;;12.40;99.90;;;;;;5031281;28;20195;-71
2023/10/22 08:56:31;;;;;;;3.70;3.40;;;12.40;99.90;;;;;;5031882;28;20180;-71
2023/10/22 08:59:02;;;;;;;6.13;3.70;;;12.30;99.90;;;;;;5051384;28;20249;-71
2023/10/22 09:01:27;;;;;;;6.27;3.80;;;12.40;99.90;;;;;;5051403;28;20163;-71
2023/10/22 09:03:54;;;;;;;5.60;3.70;;;12.40;99.90;;;;;;5051017;28;20237;-72
2023/10/22 09:06:22;;;;;;;5.10;4.20;;;12.40;99.90;;;;;;5051422;28;20180;-71
2023/10/22 09:08:47;;;;;;;6.83;4.40;;;12.50;99.90;;;;;;5051408;28;20171;-71
2023/10/22 09:11:13;;;;;;;4.10;3.80;;;12.60;99.90;;;;;;5050964;28;20619;-71
2023/10/22 09:13:39;;;;;;;3.80;3.50;;;12.60;99.90;;;;;;5051179;28;20220;-71
2023/10/22 09:16:05;;;;;;;3.50;3.20;;;12.60;99.90;;;;;;5051059;28;20647;-72
2023/10/22 09:18:30;;;;;;;3.73;3.43;;;12.60;99.90;;;;;;5051287;28;20261;-71
2023/10/22 09:21:06;;;;;;;3.63;3.40;;;12.80;99.90;;;;;;5051013;28;20214;-71
2023/10/22 09:23:32;;;;;;;5.07;3.40;;;12.80;99.90;;;;;;5050829;28;20194;-72
2023/10/22 09:25:58;;;;;;;3.57;3.27;;;12.80;99.90;;;;;;5050739;28;20254;-72
2023/10/22 09:28:25;;;;;;;4.77;3.80;;;12.80;99.90;;;;;;5051038;28;20174;-71
2023/10/22 09:31:02;;;;;;;3.60;3.40;;;12.80;99.90;;;;;;5051091;28;20247;-71
2023/10/22 09:33:34;;;;;;;4.07;3.83;;;12.80;99.90;;;;;;5050689;28;20186;-71
2023/10/22 09:36:11;;;;;;;4.53;3.93;;;12.90;99.90;;;;;;5050820;28;20655;-71
2023/10/22 09:38:50;;;;;;;3.70;3.40;;;12.90;99.90;;;;;;5050805;28;20536;-71
2023/10/22 09:41:26;;;;;;;4.10;3.80;;;12.90;99.90;;;;;;5051077;28;20171;-71
2023/10/22 09:43:58;;;;;;;4.00;3.20;;;12.90;99.90;;;;;;5050545;28;20190;-70
2023/10/22 09:46:29;;;;;;;3.23;3.00;;;13.00;99.90;;;;;;5050584;28;20746;-71
2023/10/22 09:48:57;;;;;;;3.53;3.07;;;13.00;99.90;;;;;;5050827;28;20264;-71
2023/10/22 09:51:23;;;;;;;4.73;3.57;;;13.00;99.90;;;;;;5050849;28;20212;-71
2023/10/22 09:53:53;;;;;;;8.03;4.53;;;13.10;99.90;;;;;;5052968;28;20191;-71
2023/10/22 09:56:23;;;;;;;5.43;3.67;;;13.10;99.90;;;;;;5054824;28;20167;-71
2023/10/22 09:58:53;;;;;;;3.97;3.67;;;13.00;99.90;;;;;;5054852;28;20163;-71
2023/10/22 10:01:21;;;;;;;5.30;3.63;;;12.90;99.90;;;;;;5054643;28;20179;-71
2023/10/22 10:03:47;;;;;;;5.73;3.63;;;12.90;99.90;;;;;;5054433;28;20190;-71
2023/10/22 10:06:14;;;;;;;5.27;3.77;;;12.90;99.90;;;;;;5054416;28;20175;-71
2023/10/22 10:08:40;;;;;;;3.90;3.60;;;12.90;99.90;;;;;;5054674;28;20538;-71
2023/10/22 10:11:09;;;;;;;3.77;3.47;;;12.90;99.90;;;;;;5054424;28;20208;-71
2023/10/22 10:13:37;;;;;;;3.57;3.27;;;13.00;99.90;;;;;;5054444;28;20191;-71
2023/10/22 10:16:05;;;;;;;3.63;3.33;;;13.00;99.90;;;;;;5054635;28;20174;-71
2023/10/22 10:19:02;;;;;;;5.30;3.63;;;12.90;99.90;;;;;;5054559;28;20163;-71
2023/10/22 10:21:34;;;;;;;4.13;3.73;;;12.80;99.90;;;;;;5054363;28;20183;-71
2023/10/22 10:24:16;;;;;;;4.07;3.67;;;12.90;99.90;;;;;;5053943;28;20247;-71
2023/10/22 10:26:43;;;;;;;3.53;3.27;;;12.80;99.90;;;;;;5054701;28;20166;-71
2023/10/22 10:29:14;;;;;;;7.70;4.00;;;12.90;99.90;;;;;;5054305;28;20194;-70
2023/10/22 10:31:39;;;;;;;4.10;3.80;;;12.90;99.90;;;;;;5054236;28;20565;-70
2023/10/22 10:34:05;;;;;;;3.50;3.10;;;13.00;99.90;;;;;;5053474;28;20203;-70
2023/10/22 10:36:32;;;;;;;3.50;3.30;;;12.90;99.90;;;;;;5053937;28;20178;-70
2023/10/22 10:39:36;;;;;;;4.10;3.80;;;12.90;99.90;;;;;;5053820;28;20177;-70
2023/10/22 10:42:02;;;;;;;4.03;3.73;;;12.90;99.90;;;;;;5053886;28;20202;-70
2023/10/22 10:44:31;;;;;;;3.50;3.23;;;13.00;99.90;;;;;;5053551;28;20218;-70
2023/10/22 10:47:30;;;;;;;5.27;4.20;;;13.10;99.90;;;;;;5053667;28;20182;-70
2023/10/22 10:50:07;;;;;;;3.50;3.30;;;13.20;99.90;;;;;;5053779;28;20190;-70
2023/10/22 10:52:48;;;;;;;3.73;3.43;;;13.30;99.90;;;;;;5053511;28;20252;-70
2023/10/22 10:55:19;;;;;;;3.20;2.90;;;13.20;99.90;;;;;;5053715;28;20205;-70
2023/10/22 10:57:49;;;;;;;3.40;3.20;;;13.10;99.90;;;;;;5053784;28;20588;-70
2023/10/22 11:00:19;;;;;;;5.27;4.23;;;13.10;99.90;;;;;;5053490;28;20206;-70
2023/10/22 11:02:58;;;;;;;4.00;3.70;;;13.10;99.90;;;;;;5053250;28;20799;-70
2023/10/22 11:05:42;;;;;;;4.50;4.10;;;13.10;99.90;;;;;;5052912;28;20175;-70
2023/10/22 11:08:12;;;;;;;4.77;4.00;;;13.00;99.90;;;;;;5053604;28;20658;-70
2023/10/22 11:10:38;;;;;;;6.83;3.80;;;13.10;99.90;;;;;;5053552;28;20195;-70
2023/10/22 11:13:06;;;;;;;4.20;3.80;;;13.20;99.90;;;;;;5053304;28;20167;-71
2023/10/22 11:15:36;;;;;;;5.47;3.80;;;13.30;99.90;;;;;;5053478;28;20198;-70
2023/10/22 11:18:07;;;;;;;4.87;3.57;;;13.20;99.90;;;;;;5053189;28;20183;-71
2023/10/22 11:20:35;;;;;;;6.10;3.00;;;13.20;99.90;;;;;;5053348;28;20321;-70
2023/10/22 11:23:01;;;;;;;3.40;3.10;;;13.20;99.90;;;;;;5052877;28;20221;-71
2023/10/22 11:25:28;;;;;;;4.73;2.97;;;13.20;99.90;;;;;;5053384;28;20210;-71
2023/10/22 11:27:54;;;;;;;4.60;2.90;;;13.20;99.90;;;;;;5053073;28;20652;-70
2023/10/22 11:30:40;;;;;;;4.53;3.00;;;13.10;99.90;;;;;;5052591;28;20185;-70
2023/10/22 11:33:07;;;;;;;3.70;3.10;;;13.10;99.90;;;;;;5052638;28;20183;-71
2023/10/22 11:35:33;;;;;;;4.47;2.90;;;13.00;99.90;;;;;;5053047;28;20186;-71
2023/10/22 11:37:59;;;;;;;3.27;2.90;;;12.90;99.90;;;;;;5052974;28;20175;-71
2023/10/22 11:40:25;;;;;;;3.07;2.87;;;12.90;99.90;;;;;;5052618;28;20179;-71
2023/10/22 11:42:51;;;;;;;3.20;2.90;;;13.00;99.90;;;;;;5052610;28;20522;-71
2023/10/22 11:45:16;;;;;;;3.20;3.00;;;13.10;99.90;;;;;;5052910;28;20612;-71
2023/10/22 11:47:42;;;;;;;3.27;2.97;;;13.20;99.90;;;;;;5052946;28;20265;-70
2023/10/22 11:50:09;;;;;;;4.70;3.67;;;13.30;99.90;;;;;;5052910;28;20189;-70
2023/10/22 11:52:35;;;;;;;3.93;3.63;;;13.40;99.90;;;;;;5052426;28;20568;-71
2023/10/22 11:55:09;;;;;;;5.77;4.10;;;13.50;99.90;;;;;;5052243;28;20209;-70
2023/10/22 11:57:38;;;;;;;4.73;3.73;;;13.50;99.90;;;;;;5052627;28;20205;-71
2023/10/22 12:00:06;;;;;;;6.20;3.57;;;13.40;99.90;;;;;;5052243;28;20309;-71
2023/10/22 12:02:31;;;;;;;6.70;3.77;;;13.40;99.90;;;;;;5052178;28;20179;-70
2023/10/22 12:04:57;;;;;;;3.70;3.40;;;13.60;99.90;;;;;;5052367;28;20195;-71
2023/10/22 12:07:23;;;;;;;3.40;3.20;;;13.60;99.90;;;;;;5052190;28;20516;-71
2023/10/22 12:09:49;;;;;;;4.10;3.70;;;13.70;99.90;;;;;;5052448;28;20193;-70
2023/10/22 12:12:15;;;;;;;3.53;3.20;;;13.80;99.90;;;;;;5052165;28;20703;-71
2023/10/22 12:14:42;;;;;;;4.37;3.30;;;13.80;99.90;;;;;;5052074;28;20195;-71
2023/10/22 12:17:08;;;;;;;4.70;3.37;;;14.00;99.90;;;;;;5052110;28;20174;-71
2023/10/22 12:19:33;;;;;;;4.03;3.73;;;14.10;99.90;;;;;;5052226;28;20182;-71
2023/10/22 12:21:59;;;;;;;3.80;3.50;;;14.30;99.90;;;;;;5051879;28;20254;-71
2023/10/22 12:24:25;;;;;;;4.60;4.10;;;14.40;99.90;;;;;;5051735;28;20202;-71
2023/10/22 12:26:50;;;;;;;3.60;3.40;;;14.50;99.90;;;;;;5051924;28;20179;-71
2023/10/22 12:29:16;;;;;;;3.70;3.40;;;14.60;99.90;;;;;;5050148;28;20193;-71
2023/10/22 12:31:42;;;;;;;4.00;3.70;;;14.60;99.90;;;;;;5051928;28;20289;-72
2023/10/22 12:34:08;;;;;;;4.03;3.73;;;14.60;99.90;;;;;;5051360;28;20195;-71
2023/10/22 12:36:34;;;;;;;4.63;4.13;;;14.60;99.90;;;;;;5051508;28;20230;-71
2023/10/22 12:39:00;;;;;;;13.33;7.17;;;14.60;99.90;;;;;;5051710;28;20538;-70
2023/10/22 12:41:26;;;;;;;6.47;4.33;;;14.60;99.90;;;;;;5051782;28;20183;-71
2023/10/22 12:43:51;;;;;;;4.80;4.50;;;14.60;99.90;;;;;;5051283;28;20190;-71
2023/10/22 12:46:17;;;;;;;4.47;4.17;;;14.50;99.90;;;;;;5051408;28;20636;-71
2023/10/22 12:48:43;;;;;;;4.50;4.20;;;14.40;99.90;;;;;;5051703;28;20175;-72
2023/10/22 12:51:09;;;;;;;4.80;4.27;;;14.30;99.90;;;;;;5051224;28;20204;-70
2023/10/22 12:53:35;;;;;;;4.40;4.10;;;14.30;99.90;;;;;;5051345;28;20566;-70
2023/10/22 12:56:00;;;;;;;3.50;3.30;;;14.30;99.90;;;;;;5051494;28;20182;-71
2023/10/22 12:58:27;;;;;;;3.87;3.57;;;14.30;99.90;;;;;;5051361;28;20189;-71